Time;durP1;ratioP1;P1;durP2;ratioP2;P2;SDS_P1;SDS_P2;PMS_P1;PMS_P2;Temp;Humidity;BMP_temperature;BMP_pressure;BME280_temperature;BME280_humidity;BME280_pressure;Samples;Min_cycle;Max_cycle;Signal;HPM_P1;HPM_P2
2022/01/11 00:04:35;;;;;;;22.80;9.03;;;;;;;;;;10366821;28;20459;-49
2022/01/11 00:09:40;;;;;;;17.92;8.65;;;;;;;;;;10366827;28;20486;-50
2022/01/11 00:14:41;;;;;;;17.02;9.00;;;;;;;;;;10367135;28;20080;-51
2022/01/11 00:19:43;;;;;;;14.17;8.63;;;;;;;;;;10366981;28;20541;-51
2022/01/11 00:24:43;;;;;;;17.13;9.32;;;;;;;;;;10366810;28;20982;-50
2022/01/11 00:29:48;;;;;;;17.53;8.73;;;;;;;;;;10373848;28;20025;-49
2022/01/11 00:34:51;;;;;;;14.45;8.20;;;;;;;;;;10374069;28;20962;-48
2022/01/11 00:39:52;;;;;;;15.38;8.23;;;;;;;;;;10374015;28;20572;-50
2022/01/11 00:44:52;;;;;;;15.00;8.32;;;;;;;;;;10373683;28;20029;-53
2022/01/11 00:49:54;;;;;;;12.60;8.53;;;;;;;;;;10373794;28;20026;-50
2022/01/11 00:54:55;;;;;;;17.20;8.80;;;;;;;;;;10371097;28;20501;-55
2022/01/11 00:59:56;;;;;;;10.95;7.43;;;;;;;;;;10374201;28;20048;-51
2022/01/11 01:04:56;;;;;;;16.77;8.43;;;;;;;;;;10369875;28;20033;-47
2022/01/11 01:10:06;;;;;;;14.60;8.43;;;;;;;;;;10373415;28;20022;-50
2022/01/11 01:15:07;;;;;;;17.13;8.25;;;;;;;;;;10372578;28;20500;-48
2022/01/11 01:20:08;;;;;;;13.75;8.05;;;;;;;;;;10372989;28;20050;-48
2022/01/11 01:25:09;;;;;;;13.43;8.02;;;;;;;;;;10373044;28;20034;-51
2022/01/11 01:30:10;;;;;;;13.25;7.97;;;;;;;;;;10372679;28;20037;-47
2022/01/11 01:35:11;;;;;;;15.27;8.13;;;;;;;;;;10371855;28;20030;-48
2022/01/11 01:40:13;;;;;;;25.00;8.18;;;;;;;;;;10370696;28;20104;-50
2022/01/11 01:45:13;;;;;;;13.15;8.40;;;;;;;;;;10371334;28;20609;-49
2022/01/11 01:50:14;;;;;;;11.38;7.68;;;;;;;;;;10371695;28;20163;-49
2022/01/11 01:55:14;;;;;;;13.97;7.87;;;;;;;;;;10371017;28;20029;-56
2022/01/11 02:00:15;;;;;;;11.23;7.03;;;;;;;;;;10370919;28;20510;-49
2022/01/11 02:05:16;;;;;;;12.50;7.65;;;;;;;;;;10363858;28;21026;-46
2022/01/11 02:10:16;;;;;;;18.48;8.63;;;;;;;;;;10370286;28;20057;-51
2022/01/11 02:15:16;;;;;;;11.97;8.10;;;;;;;;;;10368948;28;20046;-63
2022/01/11 02:20:17;;;;;;;13.47;8.63;;;;;;;;;;10370575;28;20432;-65
2022/01/11 02:25:17;;;;;;;12.77;8.43;;;;;;;;;;10369881;28;20451;-57
2022/01/11 02:30:18;;;;;;;12.85;7.50;;;;;;;;;;10369793;28;21069;-49
2022/01/11 02:35:18;;;;;;;14.00;8.30;;;;;;;;;;10369521;28;20036;-49
2022/01/11 02:40:19;;;;;;;11.52;7.72;;;;;;;;;;10369396;28;20439;-52
2022/01/11 02:45:20;;;;;;;9.97;7.77;;;;;;;;;;10369183;28;20033;-49
2022/01/11 02:50:21;;;;;;;12.50;7.80;;;;;;;;;;10368746;28;20419;-55
2022/01/11 02:55:21;;;;;;;10.95;7.63;;;;;;;;;;10369333;28;20026;-46
2022/01/11 03:00:23;;;;;;;10.83;7.47;;;;;;;;;;10368693;28;20388;-49
2022/01/11 03:05:23;;;;;;;10.95;7.43;;;;;;;;;;10365460;28;20494;-49
2022/01/11 03:10:32;;;;;;;12.77;7.30;;;;;;;;;;10368325;28;20025;-50
2022/01/11 03:15:34;;;;;;;20.17;8.00;;;;;;;;;;10364752;28;20459;-49
2022/01/11 03:20:36;;;;;;;10.35;7.20;;;;;;;;;;10367638;28;20032;-48
2022/01/11 03:25:36;;;;;;;15.63;7.63;;;;;;;;;;10367759;28;20041;-50
2022/01/11 03:30:38;;;;;;;12.40;7.50;;;;;;;;;;10368524;28;20045;-50
2022/01/11 03:35:40;;;;;;;11.13;7.45;;;;;;;;;;10367854;28;20470;-49
2022/01/11 03:40:41;;;;;;;11.23;7.25;;;;;;;;;;10367799;28;20030;-47
2022/01/11 03:45:41;;;;;;;9.75;6.72;;;;;;;;;;10368065;28;20029;-52
2022/01/11 03:50:48;;;;;;;11.93;7.03;;;;;;;;;;10367667;28;20037;-51
2022/01/11 03:56:09;;;;;;;11.90;7.68;;;;;;;;;;10368088;28;20431;-49
2022/01/11 04:01:10;;;;;;;11.23;7.35;;;;;;;;;;10368919;28;20022;-50
2022/01/11 04:06:10;;;;;;;9.50;6.57;;;;;;;;;;10375288;28;20026;-51
2022/01/11 04:11:11;;;;;;;11.73;6.30;;;;;;;;;;10375621;28;20448;-49
2022/01/11 04:16:12;;;;;;;9.52;7.28;;;;;;;;;;10371652;28;20141;-49
2022/01/11 04:21:12;;;;;;;10.35;6.18;;;;;;;;;;10372286;28;20110;-58
2022/01/11 04:26:13;;;;;;;9.23;6.63;;;;;;;;;;10374888;28;20125;-48
2022/01/11 04:31:13;;;;;;;10.67;6.87;;;;;;;;;;10374376;28;20032;-51
2022/01/11 04:36:14;;;;;;;9.90;6.53;;;;;;;;;;10374151;28;20882;-49
2022/01/11 04:41:15;;;;;;;8.82;6.22;;;;;;;;;;10374445;28;20030;-51
2022/01/11 04:46:18;;;;;;;9.35;6.55;;;;;;;;;;10373742;28;20367;-46
2022/01/11 04:51:20;;;;;;;8.52;6.22;;;;;;;;;;10373492;28;20026;-47
2022/01/11 04:56:20;;;;;;;8.10;5.88;;;;;;;;;;10373874;28;20029;-49
2022/01/11 05:01:21;;;;;;;11.25;6.70;;;;;;;;;;10373124;28;20045;-46
2022/01/11 05:06:21;;;;;;;8.90;5.72;;;;;;;;;;10373390;28;20037;-59
2022/01/11 05:11:22;;;;;;;8.65;6.25;;;;;;;;;;10372778;28;20036;-49
2022/01/11 05:16:22;;;;;;;10.95;5.78;;;;;;;;;;10372463;28;20494;-48
2022/01/11 05:21:23;;;;;;;9.47;6.27;;;;;;;;;;10369756;28;20022;-49
2022/01/11 05:26:23;;;;;;;13.35;6.38;;;;;;;;;;10369489;28;20594;-52
2022/01/11 05:31:24;;;;;;;7.90;5.70;;;;;;;;;;10371737;28;20165;-48
2022/01/11 05:36:24;;;;;;;11.43;6.50;;;;;;;;;;10372351;28;20734;-50
2022/01/11 05:41:25;;;;;;;9.07;5.97;;;;;;;;;;10371554;28;20025;-51
2022/01/11 05:46:26;;;;;;;8.47;5.73;;;;;;;;;;10370092;28;20578;-50
2022/01/11 05:51:27;;;;;;;11.55;5.80;;;;;;;;;;10371083;28;20448;-51
2022/01/11 05:56:28;;;;;;;7.57;5.68;;;;;;;;;;10371007;28;20447;-48
2022/01/11 06:01:28;;;;;;;10.02;6.95;;;;;;;;;;10370546;28;20022;-64
2022/01/11 06:06:29;;;;;;;9.05;5.80;;;;;;;;;;10370401;28;20026;-59
2022/01/11 06:11:30;;;;;;;9.10;6.18;;;;;;;;;;10370490;28;20033;-62
2022/01/11 06:16:30;;;;;;;11.13;5.78;;;;;;;;;;10369316;28;20096;-62
2022/01/11 06:21:30;;;;;;;5.70;5.10;;;;;;;;;;10370328;28;20026;-65
2022/01/11 06:26:31;;;;;;;9.75;5.45;;;;;;;;;;10366207;28;20030;-65
2022/01/11 06:31:34;;;;;;;9.32;5.75;;;;;;;;;;10370148;28;20034;-63
2022/01/11 06:36:34;;;;;;;8.13;5.82;;;;;;;;;;10367311;28;20026;-62
2022/01/11 06:41:35;;;;;;;7.83;5.20;;;;;;;;;;10369385;28;20030;-60
2022/01/11 06:46:35;;;;;;;6.80;5.32;;;;;;;;;;10369552;28;20808;-64
2022/01/11 06:51:36;;;;;;;6.53;4.93;;;;;;;;;;10369538;28;20030;-63
2022/01/11 06:56:36;;;;;;;8.65;5.55;;;;;;;;;;10368715;28;20450;-65
2022/01/11 07:01:38;;;;;;;13.13;5.40;;;;;;;;;;10368532;28;20025;-52
2022/01/11 07:06:38;;;;;;;10.88;6.53;;;;;;;;;;10368455;28;20036;-50
2022/01/11 07:11:43;;;;;;;10.57;6.43;;;;;;;;;;10368254;28;20118;-64
2022/01/11 07:16:48;;;;;;;9.93;6.57;;;;;;;;;;10367868;28;20534;-49
2022/01/11 07:21:49;;;;;;;11.82;6.57;;;;;;;;;;10368332;28;20076;-51
2022/01/11 07:26:49;;;;;;;12.65;6.35;;;;;;;;;;10367189;28;20359;-44
2022/01/11 07:31:49;;;;;;;22.37;6.90;;;;;;;;;;10366385;28;20033;-54
2022/01/11 07:36:50;;;;;;;12.73;6.47;;;;;;;;;;10367266;28;20527;-60
2022/01/11 07:41:51;;;;;;;13.02;7.15;;;;;;;;;;10371835;28;20025;-51
2022/01/11 07:46:52;;;;;;;12.93;6.63;;;;;;;;;;10375303;28;20113;-57
2022/01/11 07:51:53;;;;;;;14.15;6.72;;;;;;;;;;10375639;28;20470;-64
2022/01/11 07:56:53;;;;;;;12.83;6.97;;;;;;;;;;10375541;28;20022;-56
2022/01/11 08:01:54;;;;;;;15.52;7.18;;;;;;;;;;10375562;28;20524;-52
2022/01/11 08:06:54;;;;;;;13.47;6.77;;;;;;;;;;10375184;28;20037;-65
2022/01/11 08:11:56;;;;;;;17.27;7.63;;;;;;;;;;10374677;28;20448;-64
2022/01/11 08:16:57;;;;;;;10.93;6.63;;;;;;;;;;10374284;28;20073;-59
2022/01/11 08:21:57;;;;;;;10.88;6.45;;;;;;;;;;10375027;28;20422;-57
2022/01/11 08:26:58;;;;;;;10.85;6.70;;;;;;;;;;10374431;28;20087;-56
2022/01/11 08:31:58;;;;;;;20.45;6.82;;;;;;;;;;10374708;28;20022;-53
2022/01/11 08:36:59;;;;;;;10.65;6.70;;;;;;;;;;10373490;28;20386;-62
2022/01/11 08:42:00;;;;;;;10.65;6.60;;;;;;;;;;10371272;28;20119;-58
2022/01/11 08:47:00;;;;;;;11.75;7.00;;;;;;;;;;10366798;28;20034;-57
2022/01/11 08:52:01;;;;;;;11.23;6.80;;;;;;;;;;10372319;28;20196;-55
2022/01/11 08:57:02;;;;;;;13.68;7.50;;;;;;;;;;10373398;28;20431;-61
2022/01/11 09:02:04;;;;;;;11.70;7.60;;;;;;;;;;10372795;28;20037;-52
2022/01/11 09:07:05;;;;;;;14.00;7.30;;;;;;;;;;10372609;28;20041;-53
2022/01/11 09:12:08;;;;;;;9.07;7.05;;;;;;;;;;10373333;28;20026;-65
2022/01/11 09:17:09;;;;;;;9.63;7.30;;;;;;;;;;10372606;28;20060;-65
2022/01/11 09:22:09;;;;;;;11.32;7.40;;;;;;;;;;10372048;28;20442;-53
2022/01/11 09:27:10;;;;;;;11.47;7.10;;;;;;;;;;10372118;28;20034;-51
2022/01/11 09:32:12;;;;;;;14.90;7.22;;;;;;;;;;10370381;28;20775;-60
2022/01/11 09:37:13;;;;;;;9.73;6.88;;;;;;;;;;10370484;28;20532;-49
2022/01/11 09:42:14;;;;;;;12.23;7.70;;;;;;;;;;10369882;28;20026;-53
2022/01/11 09:47:15;;;;;;;10.57;7.40;;;;;;;;;;10359403;28;20655;-57
2022/01/11 09:52:15;;;;;;;11.85;7.40;;;;;;;;;;10369305;28;20454;-53
2022/01/11 09:57:15;;;;;;;11.85;6.85;;;;;;;;;;10370613;28;20440;-60
2022/01/11 10:02:16;;;;;;;11.68;7.57;;;;;;;;;;10369708;28;20076;-56
2022/01/11 10:07:17;;;;;;;11.65;7.40;;;;;;;;;;10370275;28;20040;-55
2022/01/11 10:12:18;;;;;;;9.40;7.05;;;;;;;;;;10370826;28;20026;-51
2022/01/11 10:17:27;;;;;;;10.40;6.70;;;;;;;;;;10368090;28;20155;-65
2022/01/11 10:22:29;;;;;;;11.30;7.27;;;;;;;;;;10368627;28;20052;-50
2022/01/11 10:27:33;;;;;;;9.25;6.85;;;;;;;;;;10368853;28;20463;-53
2022/01/11 10:32:39;;;;;;;10.68;7.03;;;;;;;;;;10369228;28;20060;-52
2022/01/11 10:37:41;;;;;;;11.15;6.68;;;;;;;;;;10369506;28;20025;-59
2022/01/11 10:42:48;;;;;;;12.55;7.25;;;;;;;;;;10369509;28;20076;-51
2022/01/11 10:47:54;;;;;;;9.95;6.25;;;;;;;;;;10364987;28;20061;-52
2022/01/11 10:52:56;;;;;;;9.38;6.32;;;;;;;;;;10367807;28;20049;-53
2022/01/11 10:58:06;;;;;;;9.43;6.28;;;;;;;;;;10364157;28;20042;-52
2022/01/11 11:03:14;;;;;;;8.48;5.90;;;;;;;;;;10368819;28;20022;-52
2022/01/11 11:08:15;;;;;;;9.85;6.57;;;;;;;;;;10368546;28;20036;-51
2022/01/11 11:13:27;;;;;;;9.70;6.13;;;;;;;;;;10368432;28;20397;-52
2022/01/11 11:18:38;;;;;;;8.40;6.28;;;;;;;;;;10368092;28;20045;-52
2022/01/11 11:23:38;;;;;;;6.68;5.85;;;;;;;;;;10368574;28;20026;-50
2022/01/11 11:28:40;;;;;;;9.00;5.90;;;;;;;;;;10368065;28;20441;-53
2022/01/11 11:33:41;;;;;;;7.47;5.63;;;;;;;;;;10367281;28;20056;-53
2022/01/11 11:38:53;;;;;;;8.70;6.07;;;;;;;;;;10365949;28;20041;-51
2022/01/11 11:44:13;;;;;;;7.55;5.40;;;;;;;;;;10366014;28;20453;-52
2022/01/11 11:49:16;;;;;;;6.80;5.25;;;;;;;;;;10366862;28;20381;-59
2022/01/11 11:54:20;;;;;;;6.32;4.95;;;;;;;;;;10364671;28;20052;-53
2022/01/11 11:59:24;;;;;;;8.05;5.53;;;;;;;;;;10364800;28;20155;-50
2022/01/11 12:04:26;;;;;;;10.50;5.25;;;;;;;;;;10366055;28;20030;-51
2022/01/11 12:09:32;;;;;;;9.15;6.03;;;;;;;;;;10367044;28;20038;-52
2022/01/11 12:14:34;;;;;;;9.20;5.40;;;;;;;;;;10366489;28;20516;-52
2022/01/11 12:19:42;;;;;;;8.05;5.22;;;;;;;;;;10366851;28;20347;-52
2022/01/11 12:24:44;;;;;;;8.68;5.00;;;;;;;;;;10371299;28;20247;-49
2022/01/11 12:30:06;;;;;;;7.00;4.88;;;;;;;;;;10374258;28;20037;-63
2022/01/11 12:35:10;;;;;;;10.90;5.55;;;;;;;;;;10373153;28;20022;-51
2022/01/11 12:40:13;;;;;;;7.53;4.90;;;;;;;;;;10374594;28;20178;-51
2022/01/11 12:50:18;;;;;;;7.43;4.90;;;;;;;;;;10374230;28;20470;-51
2022/01/11 12:55:19;;;;;;;9.10;5.00;;;;;;;;;;10374006;28;20466;-58
2022/01/11 13:00:20;;;;;;;6.07;4.65;;;;;;;;;;10370176;28;20045;-51
2022/01/11 13:05:23;;;;;;;6.93;4.75;;;;;;;;;;10370136;28;20029;-52
2022/01/11 13:10:27;;;;;;;7.95;4.47;;;;;;;;;;10373034;28;20446;-52
2022/01/11 13:15:36;;;;;;;6.50;4.18;;;;;;;;;;10372710;28;20042;-52
2022/01/11 13:20:38;;;;;;;6.25;4.15;;;;;;;;;;10372731;28;20393;-53
2022/01/11 13:25:40;;;;;;;8.18;4.55;;;;;;;;;;10372692;28;20417;-57
2022/01/11 13:30:45;;;;;;;6.93;4.63;;;;;;;;;;10372127;28;20488;-51
2022/01/11 13:35:45;;;;;;;6.55;4.35;;;;;;;;;;10371169;28;20056;-56
2022/01/11 13:40:45;;;;;;;6.80;4.40;;;;;;;;;;10371062;28;20537;-56
2022/01/11 13:45:46;;;;;;;5.95;3.97;;;;;;;;;;10370703;28;20471;-52
2022/01/11 13:50:52;;;;;;;7.10;3.95;;;;;;;;;;10371185;28;20033;-59
2022/01/11 13:55:59;;;;;;;4.80;3.55;;;;;;;;;;10371169;28;20429;-55
2022/01/11 14:00:59;;;;;;;5.18;4.00;;;;;;;;;;10370681;28;20026;-49
2022/01/11 14:06:19;;;;;;;4.80;3.90;;;;;;;;;;10367564;28;20036;-58
2022/01/11 14:11:36;;;;;;;5.50;3.85;;;;;;;;;;10370838;28;20447;-61
2022/01/11 14:16:41;;;;;;;6.15;4.10;;;;;;;;;;10370252;28;20185;-51
2022/01/11 14:21:56;;;;;;;5.05;3.85;;;;;;;;;;10370292;28;20512;-52
2022/01/11 14:26:57;;;;;;;5.28;3.65;;;;;;;;;;10368943;28;20025;-50
2022/01/11 14:32:08;;;;;;;6.50;3.90;;;;;;;;;;10369365;28;20029;-50
2022/01/11 14:37:16;;;;;;;6.50;4.07;;;;;;;;;;10369029;28;20084;-64
2022/01/11 14:42:29;;;;;;;6.10;3.42;;;;;;;;;;10369312;28;20336;-50
2022/01/11 14:47:59;;;;;;;4.82;3.60;;;;;;;;;;10368442;28;20117;-47
2022/01/11 14:53:08;;;;;;;4.95;3.55;;;;;;;;;;10355400;28;20037;-51
2022/01/11 14:58:09;;;;;;;6.55;3.72;;;;;;;;;;10369020;28;20453;-52
2022/01/11 15:03:12;;;;;;;5.40;3.65;;;;;;;;;;10368586;28;20041;-51
2022/01/11 15:08:15;;;;;;;6.53;3.72;;;;;;;;;;10362376;28;20044;-53
2022/01/11 15:13:20;;;;;;;4.35;3.28;;;;;;;;;;10368116;28;20403;-53
2022/01/11 15:18:21;;;;;;;4.38;3.22;;;;;;;;;;10367199;28;20034;-62
2022/01/11 15:23:21;;;;;;;4.13;3.27;;;;;;;;;;10364486;28;20500;-51
2022/01/11 15:28:21;;;;;;;6.00;3.40;;;;;;;;;;10367040;28;20837;-53
2022/01/11 15:33:27;;;;;;;7.83;3.63;;;;;;;;;;10366686;28;20222;-64
2022/01/11 15:38:27;;;;;;;5.15;3.30;;;;;;;;;;10361205;28;20962;-51
2022/01/11 15:43:29;;;;;;;3.85;3.05;;;;;;;;;;10366639;28;20030;-50
2022/01/11 15:48:30;;;;;;;7.30;2.88;;;;;;;;;;10367297;28;20149;-64
2022/01/11 15:53:30;;;;;;;3.37;3.07;;;;;;;;;;10366523;28;20590;-62
2022/01/11 15:58:31;;;;;;;4.25;3.10;;;;;;;;;;10369542;28;20432;-62
2022/01/11 16:03:31;;;;;;;3.63;2.97;;;;;;;;;;10373637;28;20026;-49
2022/01/11 16:08:32;;;;;;;4.55;3.40;;;;;;;;;;10372337;28;20479;-51
2022/01/11 16:13:35;;;;;;;4.65;3.03;;;;;;;;;;10369165;28;20637;-52
2022/01/11 16:18:35;;;;;;;5.35;3.10;;;;;;;;;;10372618;28;20099;-48
2022/01/11 16:23:37;;;;;;;4.57;2.80;;;;;;;;;;10374039;28;20153;-52
2022/01/11 16:28:38;;;;;;;3.80;3.00;;;;;;;;;;10374510;28;20030;-52
2022/01/11 16:33:38;;;;;;;4.38;2.90;;;;;;;;;;10374458;28;20068;-52
2022/01/11 16:38:39;;;;;;;3.37;2.80;;;;;;;;;;10374177;28;20462;-51
2022/01/11 16:43:42;;;;;;;5.07;2.90;;;;;;;;;;10372484;28;20990;-53
2022/01/11 16:48:42;;;;;;;3.90;2.58;;;;;;;;;;10373241;28;20067;-53
2022/01/11 16:53:43;;;;;;;4.10;2.88;;;;;;;;;;10373233;28;20532;-51
2022/01/11 16:58:43;;;;;;;4.20;3.27;;;;;;;;;;10370693;28;20033;-50
2022/01/11 17:03:43;;;;;;;4.57;2.87;;;;;;;;;;10371904;28;20558;-50
2022/01/11 17:08:44;;;;;;;5.77;3.17;;;;;;;;;;10372120;28;20033;-54
2022/01/11 17:13:45;;;;;;;5.10;3.30;;;;;;;;;;10369375;28;20046;-52
2022/01/11 17:18:45;;;;;;;3.83;3.00;;;;;;;;;;10368690;28;20469;-48
2022/01/11 17:23:45;;;;;;;5.57;3.33;;;;;;;;;;10372238;28;20504;-51
2022/01/11 17:28:46;;;;;;;6.33;3.03;;;;;;;;;;10371741;28;20030;-52
2022/01/11 17:33:47;;;;;;;5.43;3.10;;;;;;;;;;10372112;28;20860;-50
2022/01/11 17:38:48;;;;;;;5.35;3.15;;;;;;;;;;10369968;28;20034;-52
2022/01/11 17:43:52;;;;;;;8.88;3.53;;;;;;;;;;10370338;28;20017;-47
2022/01/11 17:48:53;;;;;;;4.20;3.15;;;;;;;;;;10370912;28;20030;-51
2022/01/11 17:53:54;;;;;;;8.40;3.65;;;;;;;;;;10369643;28;20057;-49
2022/01/11 17:58:57;;;;;;;4.93;3.22;;;;;;;;;;10370010;28;20429;-52
2022/01/11 18:03:57;;;;;;;7.13;3.72;;;;;;;;;;10369767;28;20249;-54
2022/01/11 18:08:58;;;;;;;8.20;4.07;;;;;;;;;;10368776;28;20113;-50
2022/01/11 18:13:58;;;;;;;7.95;4.22;;;;;;;;;;10366725;28;20125;-49
2022/01/11 18:18:59;;;;;;;9.70;4.18;;;;;;;;;;10362825;28;20068;-54
2022/01/11 18:24:00;;;;;;;7.13;4.43;;;;;;;;;;10365808;28;20022;-48
2022/01/11 18:29:01;;;;;;;9.52;4.68;;;;;;;;;;10361663;28;20056;-56
2022/01/11 18:34:01;;;;;;;8.40;5.13;;;;;;;;;;10369122;28;20152;-46
2022/01/11 18:39:03;;;;;;;7.28;5.18;;;;;;;;;;10368316;28;20060;-47
2022/01/11 18:44:04;;;;;;;8.80;5.43;;;;;;;;;;10369202;28;20034;-49
2022/01/11 18:49:04;;;;;;;10.00;5.65;;;;;;;;;;10367759;28;20033;-52
2022/01/11 18:54:08;;;;;;;8.00;4.65;;;;;;;;;;10368837;28;20076;-48
2022/01/11 18:59:09;;;;;;;10.45;5.35;;;;;;;;;;10367628;28;20537;-50
2022/01/11 19:04:10;;;;;;;9.57;5.15;;;;;;;;;;10366709;28;20104;-47
2022/01/11 19:09:12;;;;;;;7.72;4.68;;;;;;;;;;10368053;28;20033;-49
2022/01/11 19:14:13;;;;;;;24.95;5.63;;;;;;;;;;10367796;28;20192;-49
2022/01/11 19:19:17;;;;;;;34.87;7.47;;;;;;;;;;10368458;28;20056;-50
2022/01/11 19:24:17;;;;;;;15.45;6.68;;;;;;;;;;10367681;28;20440;-52
2022/01/11 19:29:18;;;;;;;11.23;6.30;;;;;;;;;;10364502;28;20030;-53
2022/01/11 19:34:18;;;;;;;12.13;6.28;;;;;;;;;;10364384;28;20463;-51
2022/01/11 19:39:19;;;;;;;15.57;6.13;;;;;;;;;;10367326;28;20030;-52
2022/01/11 19:44:20;;;;;;;14.40;6.97;;;;;;;;;;10368122;28;20474;-51
2022/01/11 19:49:21;;;;;;;9.88;6.40;;;;;;;;;;10367172;28;20026;-50
2022/01/11 19:54:22;;;;;;;13.57;6.75;;;;;;;;;;10367410;28;20030;-50
2022/01/11 19:59:22;;;;;;;12.68;6.05;;;;;;;;;;10367675;28;20037;-51
2022/01/11 20:04:22;;;;;;;15.43;6.97;;;;;;;;;;10367455;28;20034;-52
2022/01/11 20:09:23;;;;;;;22.67;6.45;;;;;;;;;;10366492;28;20034;-60
2022/01/11 20:14:23;;;;;;;14.53;7.27;;;;;;;;;;10364080;28;20077;-50
2022/01/11 20:19:24;;;;;;;15.32;6.88;;;;;;;;;;10366211;28;20451;-51
2022/01/11 20:30:00;;;;;;;16.40;7.13;;;;;;;;;;10343563;28;20046;-52
2022/01/11 20:35:02;;;;;;;13.23;7.47;;;;;;;;;;10364296;28;20026;-51
2022/01/11 20:40:05;;;;;;;21.52;7.82;;;;;;;;;;10362932;28;20022;-51
2022/01/11 20:45:09;;;;;;;18.20;6.95;;;;;;;;;;10369564;28;20095;-50
2022/01/11 20:55:15;;;;;;;17.25;7.53;;;;;;;;;;10373783;28;20029;-52
2022/01/11 21:00:17;;;;;;;29.35;7.88;;;;;;;;;;10372481;28;20101;-52
2022/01/11 21:05:18;;;;;;;23.88;8.23;;;;;;;;;;10373846;28;20026;-52
2022/01/11 21:10:18;;;;;;;25.10;7.35;;;;;;;;;;10372489;28;20105;-52
2022/01/11 21:15:39;;;;;;;19.48;7.95;;;;;;;;;;10372113;28;20637;-54
2022/01/11 21:20:39;;;;;;;20.13;7.80;;;;;;;;;;10371529;28;20417;-51
2022/01/11 21:25:40;;;;;;;14.00;7.60;;;;;;;;;;10372011;28;20056;-51
2022/01/11 21:30:41;;;;;;;16.40;7.72;;;;;;;;;;10372114;28;20030;-50
2022/01/11 21:35:41;;;;;;;17.38;7.32;;;;;;;;;;10372094;28;20454;-50
2022/01/11 21:40:43;;;;;;;22.25;7.97;;;;;;;;;;10368439;28;20091;-49
2022/01/11 21:45:43;;;;;;;15.23;7.72;;;;;;;;;;10371653;28;20026;-51
2022/01/11 21:50:44;;;;;;;14.30;7.47;;;;;;;;;;10368083;28;20022;-52
2022/01/11 21:55:44;;;;;;;14.38;7.00;;;;;;;;;;10369566;28;20502;-51
2022/01/11 22:00:45;;;;;;;12.18;7.05;;;;;;;;;;10370622;28;20026;-51
2022/01/11 22:05:48;;;;;;;18.08;8.18;;;;;;;;;;10370947;28;20061;-49
2022/01/11 22:10:48;;;;;;;14.60;7.70;;;;;;;;;;10370351;28;20397;-49
2022/01/11 22:21:07;;;;;;;19.13;8.13;;;;;;;;;;10369675;28;20168;-48
2022/01/11 22:26:08;;;;;;;14.02;7.35;;;;;;;;;;10368769;28;20203;-46
2022/01/11 22:31:08;;;;;;;11.23;7.15;;;;;;;;;;10368856;28;20030;-49
2022/01/11 22:36:10;;;;;;;11.63;7.33;;;;;;;;;;10369508;28;20021;-47
2022/01/11 22:41:11;;;;;;;13.20;7.97;;;;;;;;;;10368766;28;20455;-45
2022/01/11 22:46:12;;;;;;;12.73;7.53;;;;;;;;;;10368782;28;20113;-50
2022/01/11 22:51:12;;;;;;;15.07;8.07;;;;;;;;;;10365693;28;20467;-49
2022/01/11 22:56:13;;;;;;;16.08;8.90;;;;;;;;;;10367963;28;20411;-50
2022/01/11 23:01:14;;;;;;;16.98;8.70;;;;;;;;;;10364289;28;20065;-48
2022/01/11 23:06:14;;;;;;;18.08;9.27;;;;;;;;;;10367840;28;20022;-47
2022/01/11 23:11:16;;;;;;;13.23;8.60;;;;;;;;;;10368207;28;20040;-48
2022/01/11 23:16:16;;;;;;;15.48;9.15;;;;;;;;;;10367611;28;20523;-48
2022/01/11 23:21:17;;;;;;;17.77;9.53;;;;;;;;;;10367389;28;20268;-50
2022/01/11 23:26:17;;;;;;;17.20;9.27;;;;;;;;;;10367252;28;20498;-52
2022/01/11 23:31:17;;;;;;;18.97;9.60;;;;;;;;;;10367453;28;20990;-53
2022/01/11 23:36:19;;;;;;;21.53;9.87;;;;;;;;;;10367406;28;20459;-50
2022/01/11 23:41:35;;;;;;;14.20;9.45;;;;;;;;;;10366348;28;20498;-51
2022/01/11 23:46:35;;;;;;;20.40;9.38;;;;;;;;;;10367094;28;20405;-53
2022/01/11 23:51:35;;;;;;;15.03;8.77;;;;;;;;;;10367346;28;20022;-49
2022/01/11 23:56:37;;;;;;;16.43;9.60;;;;;;;;;;10368303;28;20519;-49
